sensor_id;sensor_type;location;lat;lon;timestamp;P1;durP1;ratioP1;P2;durP2;ratioP2
77085;SDS011;66014;53.134;18.006;2023-02-20T00:01:29;6.40;;;2.00;;
77085;SDS011;66014;53.134;18.006;2023-02-20T00:03:56;5.00;;;1.90;;
77085;SDS011;66014;53.134;18.006;2023-02-20T00:06:22;4.30;;;1.40;;
77085;SDS011;66014;53.134;18.006;2023-02-20T00:08:48;3.20;;;1.20;;
77085;SDS011;66014;53.134;18.006;2023-02-20T00:13:53;3.20;;;1.80;;
77085;SDS011;66014;53.134;18.006;2023-02-20T00:17:00;4.80;;;1.50;;
77085;SDS011;66014;53.134;18.006;2023-02-20T00:19:26;7.10;;;2.20;;
77085;SDS011;66014;53.134;18.006;2023-02-20T00:21:52;4.50;;;1.40;;
77085;SDS011;66014;53.134;18.006;2023-02-20T00:24:19;4.40;;;1.20;;
77085;SDS011;66014;53.134;18.006;2023-02-20T00:26:51;3.70;;;1.20;;
77085;SDS011;66014;53.134;18.006;2023-02-20T00:29:19;5.40;;;1.30;;
77085;SDS011;66014;53.134;18.006;2023-02-20T00:31:49;5.00;;;1.50;;
77085;SDS011;66014;53.134;18.006;2023-02-20T00:34:16;5.70;;;1.50;;
77085;SDS011;66014;53.134;18.006;2023-02-20T00:36:43;5.70;;;1.60;;
77085;SDS011;66014;53.134;18.006;2023-02-20T00:39:10;7.60;;;2.10;;
77085;SDS011;66014;53.134;18.006;2023-02-20T00:41:35;4.80;;;1.40;;
77085;SDS011;66014;53.134;18.006;2023-02-20T00:44:02;4.70;;;1.10;;
77085;SDS011;66014;53.134;18.006;2023-02-20T00:46:28;5.50;;;1.40;;
77085;SDS011;66014;53.134;18.006;2023-02-20T00:48:54;3.50;;;1.10;;
77085;SDS011;66014;53.134;18.006;2023-02-20T00:51:20;6.10;;;1.20;;
77085;SDS011;66014;53.134;18.006;2023-02-20T00:53:46;3.50;;;1.40;;
77085;SDS011;66014;53.134;18.006;2023-02-20T00:56:12;4.00;;;1.40;;
77085;SDS011;66014;53.134;18.006;2023-02-20T00:58:39;5.40;;;1.40;;
77085;SDS011;66014;53.134;18.006;2023-02-20T01:01:05;3.50;;;1.30;;
77085;SDS011;66014;53.134;18.006;2023-02-20T01:03:32;3.80;;;1.40;;
77085;SDS011;66014;53.134;18.006;2023-02-20T01:05:58;2.70;;;0.90;;
77085;SDS011;66014;53.134;18.006;2023-02-20T01:08:24;6.40;;;1.20;;
77085;SDS011;66014;53.134;18.006;2023-02-20T01:10:50;3.60;;;0.90;;
77085;SDS011;66014;53.134;18.006;2023-02-20T01:13:16;5.20;;;1.30;;
77085;SDS011;66014;53.134;18.006;2023-02-20T01:15:42;4.00;;;1.30;;
77085;SDS011;66014;53.134;18.006;2023-02-20T01:18:08;5.80;;;1.10;;
77085;SDS011;66014;53.134;18.006;2023-02-20T01:20:34;3.10;;;1.20;;
77085;SDS011;66014;53.134;18.006;2023-02-20T01:23:00;2.80;;;1.00;;
77085;SDS011;66014;53.134;18.006;2023-02-20T01:25:26;4.70;;;1.40;;
77085;SDS011;66014;53.134;18.006;2023-02-20T01:27:52;5.90;;;1.40;;
77085;SDS011;66014;53.134;18.006;2023-02-20T01:30:18;3.10;;;0.90;;
77085;SDS011;66014;53.134;18.006;2023-02-20T01:32:44;4.30;;;1.10;;
77085;SDS011;66014;53.134;18.006;2023-02-20T01:35:12;6.10;;;1.20;;
77085;SDS011;66014;53.134;18.006;2023-02-20T01:37:37;4.30;;;1.40;;
77085;SDS011;66014;53.134;18.006;2023-02-20T01:40:04;6.50;;;1.30;;
77085;SDS011;66014;53.134;18.006;2023-02-20T01:42:32;2.80;;;1.10;;
77085;SDS011;66014;53.134;18.006;2023-02-20T01:45:13;3.10;;;1.30;;
77085;SDS011;66014;53.134;18.006;2023-02-20T01:47:41;5.60;;;1.70;;
77085;SDS011;66014;53.134;18.006;2023-02-20T01:50:07;6.10;;;1.30;;
77085;SDS011;66014;53.134;18.006;2023-02-20T01:52:38;5.10;;;2.00;;
77085;SDS011;66014;53.134;18.006;2023-02-20T01:55:18;2.50;;;1.40;;
77085;SDS011;66014;53.134;18.006;2023-02-20T01:57:50;4.10;;;1.10;;
77085;SDS011;66014;53.134;18.006;2023-02-20T02:00:43;3.50;;;1.10;;
77085;SDS011;66014;53.134;18.006;2023-02-20T02:03:13;2.80;;;1.40;;
77085;SDS011;66014;53.134;18.006;2023-02-20T02:05:46;4.40;;;2.00;;
77085;SDS011;66014;53.134;18.006;2023-02-20T02:08:17;5.50;;;1.90;;
77085;SDS011;66014;53.134;18.006;2023-02-20T02:13:19;8.10;;;1.90;;
77085;SDS011;66014;53.134;18.006;2023-02-20T02:15:49;7.60;;;2.10;;
77085;SDS011;66014;53.134;18.006;2023-02-20T02:18:21;5.40;;;1.80;;
77085;SDS011;66014;53.134;18.006;2023-02-20T02:41:01;4.60;;;1.50;;
77085;SDS011;66014;53.134;18.006;2023-02-20T02:46:29;3.20;;;1.30;;
77085;SDS011;66014;53.134;18.006;2023-02-20T02:51:51;4.40;;;1.60;;
77085;SDS011;66014;53.134;18.006;2023-02-20T02:54:20;3.90;;;1.20;;
77085;SDS011;66014;53.134;18.006;2023-02-20T02:56:51;3.60;;;1.00;;
77085;SDS011;66014;53.134;18.006;2023-02-20T02:59:22;6.10;;;1.40;;
77085;SDS011;66014;53.134;18.006;2023-02-20T03:01:58;6.30;;;1.80;;
77085;SDS011;66014;53.134;18.006;2023-02-20T03:04:28;7.90;;;2.70;;
77085;SDS011;66014;53.134;18.006;2023-02-20T03:07:02;5.70;;;2.00;;
77085;SDS011;66014;53.134;18.006;2023-02-20T03:09:36;8.50;;;2.20;;
77085;SDS011;66014;53.134;18.006;2023-02-20T03:12:07;8.60;;;2.80;;
77085;SDS011;66014;53.134;18.006;2023-02-20T03:20:53;5.90;;;2.00;;
77085;SDS011;66014;53.134;18.006;2023-02-20T03:23:23;4.40;;;1.80;;
77085;SDS011;66014;53.134;18.006;2023-02-20T03:25:53;7.70;;;2.30;;
77085;SDS011;66014;53.134;18.006;2023-02-20T03:28:37;5.00;;;1.60;;
77085;SDS011;66014;53.134;18.006;2023-02-20T03:31:11;3.70;;;1.60;;
77085;SDS011;66014;53.134;18.006;2023-02-20T03:33:43;6.80;;;1.70;;
77085;SDS011;66014;53.134;18.006;2023-02-20T03:36:32;5.10;;;1.80;;
77085;SDS011;66014;53.134;18.006;2023-02-20T03:39:24;4.50;;;1.80;;
77085;SDS011;66014;53.134;18.006;2023-02-20T03:42:12;7.10;;;3.90;;
77085;SDS011;66014;53.134;18.006;2023-02-20T03:45:00;8.10;;;3.90;;
77085;SDS011;66014;53.134;18.006;2023-02-20T03:47:29;18.70;;;9.40;;
77085;SDS011;66014;53.134;18.006;2023-02-20T03:49:58;9.10;;;4.40;;
77085;SDS011;66014;53.134;18.006;2023-02-20T03:52:26;25.00;;;12.00;;
77085;SDS011;66014;53.134;18.006;2023-02-20T03:54:52;26.40;;;14.10;;
77085;SDS011;66014;53.134;18.006;2023-02-20T03:57:23;14.20;;;8.00;;
77085;SDS011;66014;53.134;18.006;2023-02-20T04:00:10;49.70;;;23.60;;
77085;SDS011;66014;53.134;18.006;2023-02-20T04:02:44;32.00;;;18.10;;
77085;SDS011;66014;53.134;18.006;2023-02-20T04:05:18;11.60;;;5.00;;
77085;SDS011;66014;53.134;18.006;2023-02-20T04:07:51;9.40;;;4.00;;
77085;SDS011;66014;53.134;18.006;2023-02-20T04:10:23;7.90;;;2.80;;
77085;SDS011;66014;53.134;18.006;2023-02-20T04:13:10;7.80;;;1.90;;
77085;SDS011;66014;53.134;18.006;2023-02-20T04:15:39;5.70;;;1.90;;
77085;SDS011;66014;53.134;18.006;2023-02-20T04:18:08;7.70;;;2.10;;
77085;SDS011;66014;53.134;18.006;2023-02-20T04:20:38;9.90;;;3.20;;
77085;SDS011;66014;53.134;18.006;2023-02-20T04:23:09;5.10;;;2.20;;
77085;SDS011;66014;53.134;18.006;2023-02-20T04:28:12;8.20;;;2.30;;
77085;SDS011;66014;53.134;18.006;2023-02-20T04:30:42;5.90;;;2.10;;
77085;SDS011;66014;53.134;18.006;2023-02-20T04:33:18;6.40;;;2.00;;
77085;SDS011;66014;53.134;18.006;2023-02-20T04:35:45;2.90;;;1.30;;
77085;SDS011;66014;53.134;18.006;2023-02-20T04:38:11;5.80;;;2.10;;
77085;SDS011;66014;53.134;18.006;2023-02-20T04:40:40;6.40;;;2.30;;
77085;SDS011;66014;53.134;18.006;2023-02-20T04:43:06;5.20;;;1.50;;
77085;SDS011;66014;53.134;18.006;2023-02-20T04:45:35;4.50;;;2.20;;
77085;SDS011;66014;53.134;18.006;2023-02-20T04:48:01;3.40;;;1.80;;
77085;SDS011;66014;53.134;18.006;2023-02-20T04:50:28;4.30;;;1.70;;
77085;SDS011;66014;53.134;18.006;2023-02-20T04:52:56;6.30;;;2.20;;
77085;SDS011;66014;53.134;18.006;2023-02-20T04:55:23;3.40;;;1.90;;
77085;SDS011;66014;53.134;18.006;2023-02-20T04:57:49;7.70;;;2.20;;
77085;SDS011;66014;53.134;18.006;2023-02-20T05:00:16;4.30;;;1.50;;
77085;SDS011;66014;53.134;18.006;2023-02-20T05:02:43;4.60;;;2.00;;
77085;SDS011;66014;53.134;18.006;2023-02-20T05:05:14;5.50;;;2.30;;
77085;SDS011;66014;53.134;18.006;2023-02-20T05:07:43;6.80;;;2.60;;
77085;SDS011;66014;53.134;18.006;2023-02-20T05:10:12;5.40;;;2.10;;
77085;SDS011;66014;53.134;18.006;2023-02-20T05:12:39;5.10;;;2.40;;
77085;SDS011;66014;53.134;18.006;2023-02-20T05:15:05;5.70;;;2.60;;
77085;SDS011;66014;53.134;18.006;2023-02-20T05:17:31;8.10;;;2.80;;
77085;SDS011;66014;53.134;18.006;2023-02-20T05:19:57;5.40;;;2.20;;
77085;SDS011;66014;53.134;18.006;2023-02-20T05:22:26;6.10;;;1.60;;
77085;SDS011;66014;53.134;18.006;2023-02-20T05:24:52;4.90;;;2.00;;
77085;SDS011;66014;53.134;18.006;2023-02-20T05:27:19;8.10;;;2.10;;
77085;SDS011;66014;53.134;18.006;2023-02-20T05:32:39;5.70;;;1.80;;
77085;SDS011;66014;53.134;18.006;2023-02-20T05:35:07;4.60;;;1.90;;
77085;SDS011;66014;53.134;18.006;2023-02-20T05:37:33;4.50;;;1.90;;
77085;SDS011;66014;53.134;18.006;2023-02-20T05:39:59;4.00;;;1.70;;
77085;SDS011;66014;53.134;18.006;2023-02-20T05:42:25;5.80;;;2.20;;
77085;SDS011;66014;53.134;18.006;2023-02-20T05:44:51;11.30;;;4.30;;
77085;SDS011;66014;53.134;18.006;2023-02-20T05:47:17;8.50;;;2.70;;
77085;SDS011;66014;53.134;18.006;2023-02-20T05:49:43;5.50;;;2.30;;
77085;SDS011;66014;53.134;18.006;2023-02-20T05:52:12;3.80;;;1.70;;
77085;SDS011;66014;53.134;18.006;2023-02-20T05:54:38;3.70;;;1.70;;
77085;SDS011;66014;53.134;18.006;2023-02-20T05:57:05;4.80;;;1.80;;
77085;SDS011;66014;53.134;18.006;2023-02-20T05:59:31;5.70;;;2.10;;
77085;SDS011;66014;53.134;18.006;2023-02-20T06:01:57;3.70;;;1.30;;
77085;SDS011;66014;53.134;18.006;2023-02-20T06:04:24;5.90;;;2.00;;
77085;SDS011;66014;53.134;18.006;2023-02-20T06:06:53;4.00;;;2.10;;
77085;SDS011;66014;53.134;18.006;2023-02-20T06:09:21;6.60;;;1.90;;
77085;SDS011;66014;53.134;18.006;2023-02-20T06:11:50;4.50;;;2.00;;
77085;SDS011;66014;53.134;18.006;2023-02-20T06:14:18;7.70;;;2.00;;
77085;SDS011;66014;53.134;18.006;2023-02-20T06:16:45;4.50;;;2.10;;
77085;SDS011;66014;53.134;18.006;2023-02-20T06:19:20;5.80;;;2.50;;
77085;SDS011;66014;53.134;18.006;2023-02-20T06:21:48;5.10;;;2.10;;
77085;SDS011;66014;53.134;18.006;2023-02-20T06:24:35;7.00;;;2.30;;
77085;SDS011;66014;53.134;18.006;2023-02-20T06:27:41;6.00;;;1.80;;
77085;SDS011;66014;53.134;18.006;2023-02-20T06:30:07;8.90;;;2.70;;
77085;SDS011;66014;53.134;18.006;2023-02-20T06:32:34;5.10;;;2.50;;
77085;SDS011;66014;53.134;18.006;2023-02-20T06:35:00;8.40;;;2.60;;
77085;SDS011;66014;53.134;18.006;2023-02-20T06:37:25;9.90;;;2.90;;
77085;SDS011;66014;53.134;18.006;2023-02-20T06:39:51;6.60;;;3.10;;
77085;SDS011;66014;53.134;18.006;2023-02-20T06:42:17;10.00;;;3.60;;
77085;SDS011;66014;53.134;18.006;2023-02-20T06:44:43;5.80;;;2.40;;
77085;SDS011;66014;53.134;18.006;2023-02-20T06:47:10;9.00;;;3.20;;
77085;SDS011;66014;53.134;18.006;2023-02-20T06:49:36;11.60;;;3.50;;
77085;SDS011;66014;53.134;18.006;2023-02-20T06:52:03;8.90;;;4.20;;
77085;SDS011;66014;53.134;18.006;2023-02-20T06:54:31;8.90;;;3.20;;
77085;SDS011;66014;53.134;18.006;2023-02-20T06:56:58;7.90;;;3.10;;
77085;SDS011;66014;53.134;18.006;2023-02-20T06:59:24;26.20;;;16.10;;
77085;SDS011;66014;53.134;18.006;2023-02-20T07:01:51;18.90;;;11.50;;
77085;SDS011;66014;53.134;18.006;2023-02-20T07:04:18;8.40;;;4.10;;
77085;SDS011;66014;53.134;18.006;2023-02-20T07:06:45;8.90;;;3.60;;
77085;SDS011;66014;53.134;18.006;2023-02-20T07:09:21;6.50;;;3.20;;
77085;SDS011;66014;53.134;18.006;2023-02-20T07:11:53;11.50;;;4.70;;
77085;SDS011;66014;53.134;18.006;2023-02-20T07:14:20;14.60;;;6.10;;
77085;SDS011;66014;53.134;18.006;2023-02-20T07:16:46;6.40;;;3.60;;
77085;SDS011;66014;53.134;18.006;2023-02-20T07:19:12;7.50;;;3.50;;
77085;SDS011;66014;53.134;18.006;2023-02-20T07:21:38;9.00;;;4.20;;
77085;SDS011;66014;53.134;18.006;2023-02-20T07:24:04;9.00;;;4.10;;
77085;SDS011;66014;53.134;18.006;2023-02-20T07:26:31;9.30;;;3.30;;
77085;SDS011;66014;53.134;18.006;2023-02-20T07:28:57;8.40;;;3.50;;
77085;SDS011;66014;53.134;18.006;2023-02-20T07:31:25;8.00;;;3.80;;
77085;SDS011;66014;53.134;18.006;2023-02-20T07:33:52;8.00;;;3.50;;
77085;SDS011;66014;53.134;18.006;2023-02-20T07:36:18;14.20;;;5.50;;
77085;SDS011;66014;53.134;18.006;2023-02-20T07:38:58;10.80;;;5.00;;
77085;SDS011;66014;53.134;18.006;2023-02-20T07:41:26;11.00;;;4.80;;
77085;SDS011;66014;53.134;18.006;2023-02-20T07:43:56;15.00;;;5.70;;
77085;SDS011;66014;53.134;18.006;2023-02-20T07:46:22;15.50;;;7.70;;
77085;SDS011;66014;53.134;18.006;2023-02-20T07:48:48;7.20;;;3.40;;
77085;SDS011;66014;53.134;18.006;2023-02-20T07:51:14;8.80;;;4.10;;
77085;SDS011;66014;53.134;18.006;2023-02-20T07:53:48;10.10;;;4.30;;
77085;SDS011;66014;53.134;18.006;2023-02-20T07:56:14;9.30;;;4.40;;
77085;SDS011;66014;53.134;18.006;2023-02-20T07:58:41;13.60;;;5.50;;
77085;SDS011;66014;53.134;18.006;2023-02-20T08:01:06;9.90;;;5.10;;
77085;SDS011;66014;53.134;18.006;2023-02-20T08:03:32;10.40;;;4.40;;
77085;SDS011;66014;53.134;18.006;2023-02-20T08:05:58;9.70;;;4.20;;
77085;SDS011;66014;53.134;18.006;2023-02-20T08:08:24;12.50;;;6.30;;
77085;SDS011;66014;53.134;18.006;2023-02-20T08:10:50;45.80;;;18.80;;
77085;SDS011;66014;53.134;18.006;2023-02-20T08:13:16;22.20;;;9.20;;
77085;SDS011;66014;53.134;18.006;2023-02-20T08:15:42;53.20;;;24.50;;
77085;SDS011;66014;53.134;18.006;2023-02-20T08:18:12;21.00;;;8.20;;
77085;SDS011;66014;53.134;18.006;2023-02-20T08:20:41;11.00;;;5.90;;
77085;SDS011;66014;53.134;18.006;2023-02-20T08:23:17;13.20;;;5.80;;
77085;SDS011;66014;53.134;18.006;2023-02-20T08:25:45;8.30;;;4.70;;
77085;SDS011;66014;53.134;18.006;2023-02-20T08:28:11;9.60;;;4.20;;
77085;SDS011;66014;53.134;18.006;2023-02-20T08:30:38;12.00;;;5.50;;
77085;SDS011;66014;53.134;18.006;2023-02-20T08:33:04;14.00;;;6.50;;
77085;SDS011;66014;53.134;18.006;2023-02-20T08:35:31;10.60;;;5.30;;
77085;SDS011;66014;53.134;18.006;2023-02-20T08:38:04;11.10;;;5.30;;
77085;SDS011;66014;53.134;18.006;2023-02-20T08:40:31;11.30;;;6.30;;
77085;SDS011;66014;53.134;18.006;2023-02-20T08:42:58;8.10;;;4.30;;
77085;SDS011;66014;53.134;18.006;2023-02-20T08:45:24;10.80;;;5.90;;
77085;SDS011;66014;53.134;18.006;2023-02-20T08:47:50;10.30;;;6.10;;
77085;SDS011;66014;53.134;18.006;2023-02-20T08:50:17;11.60;;;6.40;;
77085;SDS011;66014;53.134;18.006;2023-02-20T08:52:44;8.70;;;4.30;;
77085;SDS011;66014;53.134;18.006;2023-02-20T08:55:11;13.30;;;6.60;;
77085;SDS011;66014;53.134;18.006;2023-02-20T08:57:37;11.90;;;5.30;;
77085;SDS011;66014;53.134;18.006;2023-02-20T09:00:06;11.10;;;4.50;;
77085;SDS011;66014;53.134;18.006;2023-02-20T09:02:32;10.90;;;5.50;;
77085;SDS011;66014;53.134;18.006;2023-02-20T09:04:58;8.00;;;4.30;;
77085;SDS011;66014;53.134;18.006;2023-02-20T09:07:24;45.20;;;28.70;;
77085;SDS011;66014;53.134;18.006;2023-02-20T09:09:50;21.30;;;12.30;;
77085;SDS011;66014;53.134;18.006;2023-02-20T09:12:16;13.10;;;7.70;;
77085;SDS011;66014;53.134;18.006;2023-02-20T09:14:42;12.00;;;7.70;;
77085;SDS011;66014;53.134;18.006;2023-02-20T09:17:08;10.50;;;5.50;;
77085;SDS011;66014;53.134;18.006;2023-02-20T09:19:34;11.10;;;5.30;;
77085;SDS011;66014;53.134;18.006;2023-02-20T09:22:00;9.40;;;5.00;;
77085;SDS011;66014;53.134;18.006;2023-02-20T09:24:26;8.40;;;4.50;;
77085;SDS011;66014;53.134;18.006;2023-02-20T09:26:59;15.60;;;9.10;;
77085;SDS011;66014;53.134;18.006;2023-02-20T09:29:26;14.50;;;7.40;;
77085;SDS011;66014;53.134;18.006;2023-02-20T09:31:52;19.40;;;7.60;;
77085;SDS011;66014;53.134;18.006;2023-02-20T09:34:19;20.10;;;11.20;;
77085;SDS011;66014;53.134;18.006;2023-02-20T09:36:49;13.30;;;6.20;;
77085;SDS011;66014;53.134;18.006;2023-02-20T09:39:15;9.50;;;5.00;;
77085;SDS011;66014;53.134;18.006;2023-02-20T09:53:27;15.20;;;5.80;;
77085;SDS011;66014;53.134;18.006;2023-02-20T09:55:56;14.40;;;7.20;;
77085;SDS011;66014;53.134;18.006;2023-02-20T10:01:10;16.90;;;6.30;;
77085;SDS011;66014;53.134;18.006;2023-02-20T10:06:16;8.40;;;4.20;;
77085;SDS011;66014;53.134;18.006;2023-02-20T10:08:44;13.10;;;6.50;;
77085;SDS011;66014;53.134;18.006;2023-02-20T10:11:16;10.70;;;5.30;;
77085;SDS011;66014;53.134;18.006;2023-02-20T10:16:46;10.50;;;5.00;;
77085;SDS011;66014;53.134;18.006;2023-02-20T10:19:50;8.80;;;5.60;;
77085;SDS011;66014;53.134;18.006;2023-02-20T10:22:22;12.00;;;5.40;;
77085;SDS011;66014;53.134;18.006;2023-02-20T10:25:15;12.10;;;5.90;;
77085;SDS011;66014;53.134;18.006;2023-02-20T10:27:59;10.00;;;5.00;;
77085;SDS011;66014;53.134;18.006;2023-02-20T10:30:45;11.20;;;5.10;;
77085;SDS011;66014;53.134;18.006;2023-02-20T10:33:23;11.90;;;6.30;;
77085;SDS011;66014;53.134;18.006;2023-02-20T10:39:17;9.30;;;4.80;;
77085;SDS011;66014;53.134;18.006;2023-02-20T10:41:48;11.50;;;5.50;;
77085;SDS011;66014;53.134;18.006;2023-02-20T10:47:05;12.60;;;5.90;;
77085;SDS011;66014;53.134;18.006;2023-02-20T10:49:51;11.20;;;5.60;;
77085;SDS011;66014;53.134;18.006;2023-02-20T10:52:30;10.60;;;5.40;;
77085;SDS011;66014;53.134;18.006;2023-02-20T10:55:49;14.80;;;6.50;;
77085;SDS011;66014;53.134;18.006;2023-02-20T10:58:09;11.70;;;5.20;;
77085;SDS011;66014;53.134;18.006;2023-02-20T11:00:50;15.70;;;8.00;;
77085;SDS011;66014;53.134;18.006;2023-02-20T11:03:23;14.50;;;6.70;;
77085;SDS011;66014;53.134;18.006;2023-02-20T11:05:55;15.40;;;7.00;;
77085;SDS011;66014;53.134;18.006;2023-02-20T11:08:23;16.40;;;6.80;;
77085;SDS011;66014;53.134;18.006;2023-02-20T11:10:52;15.40;;;7.20;;
77085;SDS011;66014;53.134;18.006;2023-02-20T11:13:24;15.10;;;8.60;;
77085;SDS011;66014;53.134;18.006;2023-02-20T11:15:52;14.80;;;7.70;;
77085;SDS011;66014;53.134;18.006;2023-02-20T11:18:23;14.60;;;7.10;;
77085;SDS011;66014;53.134;18.006;2023-02-20T11:20:55;16.90;;;6.10;;
77085;SDS011;66014;53.134;18.006;2023-02-20T11:23:35;15.40;;;7.00;;
77085;SDS011;66014;53.134;18.006;2023-02-20T11:28:45;17.10;;;8.00;;
77085;SDS011;66014;53.134;18.006;2023-02-20T11:31:21;11.50;;;6.40;;
77085;SDS011;66014;53.134;18.006;2023-02-20T11:33:47;11.70;;;7.00;;
77085;SDS011;66014;53.134;18.006;2023-02-20T11:36:16;13.10;;;6.80;;
77085;SDS011;66014;53.134;18.006;2023-02-20T11:41:26;13.90;;;7.90;;
77085;SDS011;66014;53.134;18.006;2023-02-20T11:46:32;12.30;;;6.50;;
77085;SDS011;66014;53.134;18.006;2023-02-20T11:49:00;14.80;;;7.80;;
77085;SDS011;66014;53.134;18.006;2023-02-20T11:51:31;14.20;;;8.50;;
77085;SDS011;66014;53.134;18.006;2023-02-20T11:56:34;12.40;;;6.80;;
77085;SDS011;66014;53.134;18.006;2023-02-20T12:01:54;14.30;;;7.00;;
77085;SDS011;66014;53.134;18.006;2023-02-20T12:04:21;15.40;;;8.20;;
77085;SDS011;66014;53.134;18.006;2023-02-20T12:06:49;13.00;;;7.70;;
77085;SDS011;66014;53.134;18.006;2023-02-20T12:09:19;12.80;;;6.70;;
77085;SDS011;66014;53.134;18.006;2023-02-20T12:11:51;13.20;;;6.40;;
77085;SDS011;66014;53.134;18.006;2023-02-20T12:14:19;12.90;;;7.00;;
77085;SDS011;66014;53.134;18.006;2023-02-20T12:19:26;12.60;;;7.10;;
77085;SDS011;66014;53.134;18.006;2023-02-20T12:27:18;15.10;;;6.50;;
77085;SDS011;66014;53.134;18.006;2023-02-20T12:36:14;13.80;;;7.40;;
77085;SDS011;66014;53.134;18.006;2023-02-20T12:46:22;8.90;;;4.80;;
77085;SDS011;66014;53.134;18.006;2023-02-20T12:49:11;12.50;;;6.20;;
77085;SDS011;66014;53.134;18.006;2023-02-20T12:52:04;12.80;;;6.20;;
77085;SDS011;66014;53.134;18.006;2023-02-20T12:54:35;9.70;;;5.10;;
77085;SDS011;66014;53.134;18.006;2023-02-20T13:00:00;8.80;;;4.60;;
77085;SDS011;66014;53.134;18.006;2023-02-20T13:05:07;10.60;;;6.60;;
77085;SDS011;66014;53.134;18.006;2023-02-20T13:07:36;17.00;;;7.00;;
77085;SDS011;66014;53.134;18.006;2023-02-20T13:10:10;14.40;;;6.60;;
77085;SDS011;66014;53.134;18.006;2023-02-20T13:12:40;16.00;;;8.90;;
77085;SDS011;66014;53.134;18.006;2023-02-20T13:15:15;14.70;;;7.60;;
77085;SDS011;66014;53.134;18.006;2023-02-20T13:20:32;13.00;;;6.20;;
77085;SDS011;66014;53.134;18.006;2023-02-20T13:23:24;13.50;;;6.50;;
77085;SDS011;66014;53.134;18.006;2023-02-20T13:25:52;18.70;;;7.90;;
77085;SDS011;66014;53.134;18.006;2023-02-20T13:31:05;13.10;;;6.70;;
77085;SDS011;66014;53.134;18.006;2023-02-20T13:33:34;12.20;;;7.80;;
77085;SDS011;66014;53.134;18.006;2023-02-20T13:36:04;14.60;;;7.10;;
77085;SDS011;66014;53.134;18.006;2023-02-20T13:38:31;10.40;;;5.90;;
77085;SDS011;66014;53.134;18.006;2023-02-20T13:41:04;13.50;;;7.90;;
77085;SDS011;66014;53.134;18.006;2023-02-20T13:43:33;13.50;;;7.10;;
77085;SDS011;66014;53.134;18.006;2023-02-20T13:46:12;11.90;;;6.20;;
77085;SDS011;66014;53.134;18.006;2023-02-20T13:48:43;37.40;;;17.80;;
77085;SDS011;66014;53.134;18.006;2023-02-20T13:56:14;13.40;;;6.70;;
77085;SDS011;66014;53.134;18.006;2023-02-20T13:58:49;25.80;;;12.80;;
77085;SDS011;66014;53.134;18.006;2023-02-20T14:01:16;13.50;;;6.60;;
77085;SDS011;66014;53.134;18.006;2023-02-20T14:03:42;10.80;;;5.90;;
77085;SDS011;66014;53.134;18.006;2023-02-20T14:08:38;16.40;;;9.70;;
77085;SDS011;66014;53.134;18.006;2023-02-20T14:11:28;13.70;;;7.80;;
77085;SDS011;66014;53.134;18.006;2023-02-20T14:14:02;31.10;;;16.40;;
77085;SDS011;66014;53.134;18.006;2023-02-20T14:16:38;11.30;;;7.20;;
77085;SDS011;66014;53.134;18.006;2023-02-20T14:19:16;12.80;;;7.20;;
77085;SDS011;66014;53.134;18.006;2023-02-20T14:21:50;10.80;;;5.80;;
77085;SDS011;66014;53.134;18.006;2023-02-20T14:24:23;11.30;;;5.70;;
77085;SDS011;66014;53.134;18.006;2023-02-20T14:26:57;11.20;;;6.10;;
77085;SDS011;66014;53.134;18.006;2023-02-20T14:29:27;10.70;;;6.10;;
77085;SDS011;66014;53.134;18.006;2023-02-20T14:32:01;11.00;;;7.30;;
77085;SDS011;66014;53.134;18.006;2023-02-20T14:34:36;11.40;;;7.10;;
77085;SDS011;66014;53.134;18.006;2023-02-20T14:37:15;11.90;;;7.00;;
77085;SDS011;66014;53.134;18.006;2023-02-20T14:40:08;9.00;;;6.00;;
77085;SDS011;66014;53.134;18.006;2023-02-20T14:45:16;11.90;;;6.00;;
77085;SDS011;66014;53.134;18.006;2023-02-20T14:47:58;12.00;;;5.50;;
77085;SDS011;66014;53.134;18.006;2023-02-20T14:50:26;28.10;;;10.10;;
77085;SDS011;66014;53.134;18.006;2023-02-20T14:53:02;9.70;;;6.20;;
77085;SDS011;66014;53.134;18.006;2023-02-20T14:55:41;14.90;;;6.60;;
77085;SDS011;66014;53.134;18.006;2023-02-20T14:58:10;10.70;;;5.60;;
77085;SDS011;66014;53.134;18.006;2023-02-20T15:00:43;10.50;;;6.10;;
77085;SDS011;66014;53.134;18.006;2023-02-20T15:03:28;9.30;;;6.00;;
77085;SDS011;66014;53.134;18.006;2023-02-20T15:05:58;10.80;;;5.80;;
77085;SDS011;66014;53.134;18.006;2023-02-20T15:08:32;11.10;;;6.80;;
77085;SDS011;66014;53.134;18.006;2023-02-20T15:11:08;9.70;;;5.80;;
77085;SDS011;66014;53.134;18.006;2023-02-20T15:13:39;13.40;;;7.40;;
77085;SDS011;66014;53.134;18.006;2023-02-20T15:16:20;9.60;;;6.00;;
77085;SDS011;66014;53.134;18.006;2023-02-20T15:18:51;10.60;;;6.20;;
77085;SDS011;66014;53.134;18.006;2023-02-20T15:21:32;8.20;;;5.30;;
77085;SDS011;66014;53.134;18.006;2023-02-20T15:26:50;13.40;;;7.10;;
77085;SDS011;66014;53.134;18.006;2023-02-20T15:31:46;11.70;;;5.20;;
77085;SDS011;66014;53.134;18.006;2023-02-20T15:34:27;27.20;;;9.70;;
77085;SDS011;66014;53.134;18.006;2023-02-20T15:36:56;16.80;;;6.90;;
77085;SDS011;66014;53.134;18.006;2023-02-20T15:39:23;9.00;;;4.10;;
77085;SDS011;66014;53.134;18.006;2023-02-20T15:41:49;12.30;;;5.10;;
77085;SDS011;66014;53.134;18.006;2023-02-20T15:44:18;14.10;;;6.10;;
77085;SDS011;66014;53.134;18.006;2023-02-20T15:46:47;14.20;;;6.70;;
77085;SDS011;66014;53.134;18.006;2023-02-20T15:49:15;14.20;;;7.20;;
77085;SDS011;66014;53.134;18.006;2023-02-20T15:51:40;13.20;;;7.20;;
77085;SDS011;66014;53.134;18.006;2023-02-20T15:54:10;12.50;;;6.80;;
77085;SDS011;66014;53.134;18.006;2023-02-20T15:56:42;14.40;;;7.50;;
77085;SDS011;66014;53.134;18.006;2023-02-20T15:59:08;11.00;;;6.40;;
77085;SDS011;66014;53.134;18.006;2023-02-20T16:01:47;9.10;;;5.20;;
77085;SDS011;66014;53.134;18.006;2023-02-20T16:04:33;6.50;;;4.10;;
77085;SDS011;66014;53.134;18.006;2023-02-20T16:06:59;7.40;;;4.10;;
77085;SDS011;66014;53.134;18.006;2023-02-20T16:09:25;8.70;;;5.30;;
77085;SDS011;66014;53.134;18.006;2023-02-20T16:11:51;8.20;;;5.40;;
77085;SDS011;66014;53.134;18.006;2023-02-20T16:14:17;13.00;;;8.00;;
77085;SDS011;66014;53.134;18.006;2023-02-20T16:16:44;11.80;;;6.30;;
77085;SDS011;66014;53.134;18.006;2023-02-20T16:19:13;12.40;;;6.40;;
77085;SDS011;66014;53.134;18.006;2023-02-20T16:21:43;9.60;;;4.90;;
77085;SDS011;66014;53.134;18.006;2023-02-20T16:25:01;13.70;;;7.30;;
77085;SDS011;66014;53.134;18.006;2023-02-20T16:27:27;11.50;;;6.10;;
77085;SDS011;66014;53.134;18.006;2023-02-20T16:29:55;14.20;;;7.60;;
77085;SDS011;66014;53.134;18.006;2023-02-20T16:32:25;9.60;;;5.00;;
77085;SDS011;66014;53.134;18.006;2023-02-20T16:38:00;16.70;;;7.30;;
77085;SDS011;66014;53.134;18.006;2023-02-20T16:40:26;10.20;;;5.10;;
77085;SDS011;66014;53.134;18.006;2023-02-20T16:42:52;8.20;;;4.70;;
77085;SDS011;66014;53.134;18.006;2023-02-20T16:45:18;8.70;;;5.10;;
77085;SDS011;66014;53.134;18.006;2023-02-20T16:47:47;10.10;;;5.60;;
77085;SDS011;66014;53.134;18.006;2023-02-20T16:50:14;11.00;;;6.20;;
77085;SDS011;66014;53.134;18.006;2023-02-20T16:52:57;10.10;;;3.70;;
77085;SDS011;66014;53.134;18.006;2023-02-20T16:58:13;21.00;;;9.90;;
77085;SDS011;66014;53.134;18.006;2023-02-20T17:00:42;11.60;;;5.60;;
77085;SDS011;66014;53.134;18.006;2023-02-20T17:03:09;14.30;;;5.90;;
77085;SDS011;66014;53.134;18.006;2023-02-20T17:05:37;14.20;;;7.20;;